Terminal Aerodrome Forecast
Issued by NWS

Home | Current Version | Previous Version | Text Only | Print | Product List | Glossary On
Versions: 1 2 3 4 5 6 7 8 9 10 11 12 13 14 15 16 17 18 19 20 21
000
FTUS45 KTFX 011700
TAFGTF
TAF
KGTF 011737Z 0118/0218 21011KT P6SM BKN200
     FM012200 20014KT P6SM BKN080
     FM020200 22013KT P6SM VCSH OVC060
     FM021000 24009KT P6SM SCT060 BKN120=

USA.gov is the U.S. government's official web portal to all federal, state and local government web resources and services.